Time;durP1;ratioP1;P1;durP2;ratioP2;P2;SDS_P1;SDS_P2;PMS_P1;PMS_P2;Temp;Humidity;BMP_temperature;BMP_pressure;BME280_temperature;BME280_humidity;BME280_pressure;Samples;Min_cycle;Max_cycle;Signal;HPM_P1;HPM_P2
2022/04/12 00:00:45;;;;;;;4.78;3.80;;;7.10;99.90;;;;;;5132689;27;20042;-83
2022/04/12 00:03:11;;;;;;;4.43;2.92;;;7.10;99.90;;;;;;5137938;27;20596;-83
2022/04/12 00:05:37;;;;;;;;;;;7.10;99.90;;;;;;5135778;27;20057;-83
2022/04/12 00:08:05;;;;;;;7.75;3.63;;;7.00;99.90;;;;;;5132479;27;20392;-83
2022/04/12 00:10:32;;;;;;;6.78;3.53;;;7.00;99.90;;;;;;5125297;27;20062;-83
2022/04/12 00:12:59;;;;;;;6.47;3.10;;;7.30;99.90;;;;;;5152946;27;20090;-83
2022/04/12 00:15:25;;;;;;;7.57;3.90;;;7.00;99.90;;;;;;5145207;27;20038;-83
2022/04/12 00:20:36;;;;;;;7.40;3.60;;;6.90;99.90;;;;;;5153075;27;20094;-83
2022/04/12 00:23:03;;;;;;;5.78;3.72;;;7.00;99.90;;;;;;5153124;27;20038;-83
2022/04/12 00:25:28;;;;;;;;;;;7.00;99.90;;;;;;5134712;27;20047;-84
2022/04/12 00:27:56;;;;;;;8.80;4.18;;;7.00;99.90;;;;;;5119240;27;19926;-84
2022/04/12 00:30:24;;;;;;;7.57;3.65;;;7.00;99.90;;;;;;5128690;27;20395;-84
2022/04/12 00:32:52;;;;;;;6.35;4.00;;;6.90;99.90;;;;;;5129160;27;20410;-83
2022/04/12 00:35:19;;;;;;;8.45;4.03;;;7.10;99.90;;;;;;5112064;27;20035;-84
2022/04/12 00:37:45;;;;;;;6.68;3.97;;;7.00;99.90;;;;;;5129170;27;20034;-83
2022/04/12 00:40:11;;;;;;;;;;;7.00;99.90;;;;;;5129028;27;21053;-83
2022/04/12 00:42:37;;;;;;;10.68;4.18;;;7.00;99.90;;;;;;5127613;27;19915;-84
2022/04/12 00:45:04;;;;;;;7.75;4.00;;;7.00;99.90;;;;;;5128811;28;20042;-83
2022/04/12 00:47:29;;;;;;;;;;;7.00;99.90;;;;;;5129476;27;20493;-84
2022/04/12 00:49:55;;;;;;;6.72;4.43;;;7.00;99.90;;;;;;5128773;28;19915;-84
2022/04/12 00:52:21;;;;;;;6.47;4.43;;;7.00;99.90;;;;;;5128400;28;20122;-83
2022/04/12 00:54:49;;;;;;;7.85;4.38;;;7.00;99.90;;;;;;5128962;28;20289;-83
2022/04/12 00:57:15;;;;;;;7.47;4.00;;;7.00;99.90;;;;;;5111126;28;20039;-83
2022/04/12 00:59:44;;;;;;;7.85;4.38;;;7.00;99.90;;;;;;5110368;27;20661;-83
2022/04/12 01:02:10;;;;;;;7.07;4.47;;;7.10;99.90;;;;;;5128268;27;20035;-84
2022/04/12 01:04:36;;;;;;;9.67;4.67;;;7.00;99.90;;;;;;5128819;28;20043;-83
2022/04/12 01:07:02;;;;;;;7.05;4.97;;;7.00;99.90;;;;;;5128323;28;20126;-83
2022/04/12 01:09:28;;;;;;;8.48;4.20;;;7.00;99.90;;;;;;5128532;27;20403;-84
2022/04/12 01:11:55;;;;;;;9.90;5.05;;;8.20;99.90;;;;;;5111666;27;20486;-83
2022/04/12 01:14:22;;;;;;;8.50;5.18;;;7.00;99.90;;;;;;5128077;27;20046;-83
2022/04/12 01:16:48;;;;;;;7.95;4.82;;;7.00;99.90;;;;;;5127872;27;20040;-84
2022/04/12 01:19:14;;;;;;;7.57;5.00;;;7.00;99.90;;;;;;5128424;28;20031;-84
2022/04/12 01:22:00;;;;;;;8.60;4.65;;;7.00;99.90;;;;;;5128515;27;20080;-84
2022/04/12 01:24:27;;;;;;;10.05;4.85;;;6.90;99.90;;;;;;5128291;27;20509;-83
2022/04/12 01:26:53;;;;;;;8.38;4.90;;;6.90;99.90;;;;;;5129554;27;20085;-83
2022/04/12 01:29:19;;;;;;;10.57;5.53;;;6.90;99.90;;;;;;5114754;27;20101;-83
2022/04/12 01:31:45;;;;;;;9.60;5.10;;;7.20;99.90;;;;;;5113597;27;20080;-84
2022/04/12 01:34:12;;;;;;;9.15;5.03;;;6.90;99.90;;;;;;5131857;27;20325;-83
2022/04/12 01:36:37;;;;;;;7.32;4.80;;;7.20;99.90;;;;;;5132162;27;20438;-84
2022/04/12 01:39:03;;;;;;;9.98;5.07;;;6.90;99.90;;;;;;5132165;27;20134;-84
2022/04/12 01:41:29;;;;;;;10.93;5.30;;;7.20;99.90;;;;;;5131663;27;20529;-83
2022/04/12 01:43:55;;;;;;;8.07;5.13;;;6.90;99.90;;;;;;5131999;27;20066;-84
2022/04/12 01:46:21;;;;;;;9.53;5.43;;;6.90;99.90;;;;;;5131666;27;20491;-83
2022/04/12 01:48:48;;;;;;;8.40;5.32;;;6.90;99.90;;;;;;5131414;27;20312;-84
2022/04/12 01:51:14;;;;;;;8.55;5.30;;;6.90;99.90;;;;;;5131855;27;20038;-83
2022/04/12 01:53:39;;;;;;;8.43;5.35;;;6.90;99.90;;;;;;5132126;27;20265;-83
2022/04/12 01:56:05;;;;;;;7.85;5.20;;;6.90;99.90;;;;;;5132011;27;20062;-83
2022/04/12 01:58:32;;;;;;;7.30;4.80;;;6.90;99.90;;;;;;5114659;27;20125;-83
2022/04/12 02:00:59;;;;;;;8.70;5.45;;;6.90;99.90;;;;;;5131625;27;20050;-83
2022/04/12 02:03:25;;;;;;;10.73;5.72;;;6.90;99.90;;;;;;5113299;27;20042;-84
2022/04/12 02:05:54;;;;;;;9.95;5.70;;;6.90;99.90;;;;;;5114403;27;20403;-84
2022/04/12 02:08:21;;;;;;;9.90;5.57;;;6.80;99.90;;;;;;5131615;27;20429;-83
2022/04/12 02:10:47;;;;;;;8.48;5.57;;;6.90;99.90;;;;;;5131742;27;20504;-84
2022/04/12 02:13:12;;;;;;;9.75;5.38;;;7.00;99.90;;;;;;5131382;27;20117;-83
2022/04/12 02:15:38;;;;;;;9.30;5.67;;;6.80;99.90;;;;;;5114550;27;20039;-84
2022/04/12 02:18:04;;;;;;;9.97;6.13;;;6.80;99.90;;;;;;5131168;27;20284;-84
2022/04/12 02:20:29;;;;;;;9.87;6.00;;;6.80;99.90;;;;;;5111017;27;20087;-84
2022/04/12 02:22:55;;;;;;;10.73;6.30;;;6.80;99.90;;;;;;5131350;27;20292;-84
2022/04/12 02:25:21;;;;;;;8.15;5.78;;;6.80;99.90;;;;;;5130834;27;20039;-83
2022/04/12 02:27:47;;;;;;;10.88;5.60;;;6.80;99.90;;;;;;5131272;27;20485;-83
2022/04/12 02:30:14;;;;;;;8.10;5.90;;;6.80;99.90;;;;;;5113638;27;20126;-83
2022/04/12 02:32:40;;;;;;;11.38;6.72;;;7.20;99.90;;;;;;5114016;27;20055;-83
2022/04/12 02:35:06;;;;;;;;;;;6.80;99.90;;;;;;5131635;27;20061;-83
2022/04/12 02:37:32;;;;;;;12.27;6.40;;;6.80;99.90;;;;;;5129629;27;19970;-83
2022/04/12 02:39:57;;;;;;;11.73;6.68;;;6.80;99.90;;;;;;5131094;27;20030;-84
2022/04/12 02:42:23;;;;;;;11.57;6.33;;;6.70;99.90;;;;;;5130571;27;20083;-83
2022/04/12 02:44:49;;;;;;;9.83;5.77;;;6.70;99.90;;;;;;5113742;27;20486;-83
2022/04/12 02:47:14;;;;;;;10.40;6.40;;;6.70;99.90;;;;;;5096509;27;20533;-82
2022/04/12 02:49:40;;;;;;;8.90;6.00;;;6.70;99.90;;;;;;5131176;27;20303;-84
2022/04/12 02:52:08;;;;;;;10.80;6.40;;;6.70;99.90;;;;;;5129762;27;20304;-84
2022/04/12 02:54:34;;;;;;;9.48;5.97;;;6.70;99.90;;;;;;5113451;27;20283;-83
2022/04/12 02:57:00;;;;;;;12.30;6.60;;;6.70;99.90;;;;;;5130928;27;20114;-84
2022/04/12 02:59:26;;;;;;;9.20;5.68;;;6.70;99.90;;;;;;5130314;27;20118;-85
2022/04/12 03:01:52;;;;;;;9.27;6.20;;;6.70;99.90;;;;;;5131256;27;20061;-83
2022/04/12 03:04:17;;;;;;;9.80;6.20;;;6.60;99.90;;;;;;5130533;27;20043;-84
2022/04/12 03:06:43;;;;;;;10.60;6.50;;;6.60;99.90;;;;;;5130688;27;20039;-83
2022/04/12 03:09:08;;;;;;;10.17;6.70;;;6.60;99.90;;;;;;5111343;27;20039;-84
2022/04/12 03:11:35;;;;;;;10.10;6.40;;;6.60;99.90;;;;;;5096557;27;20122;-83
2022/04/12 03:14:02;;;;;;;9.55;6.50;;;6.60;99.90;;;;;;5113831;27;20836;-82
2022/04/12 03:16:28;;;;;;;10.57;6.20;;;6.60;99.90;;;;;;5126364;27;20035;-84
2022/04/12 03:18:54;;;;;;;10.60;6.50;;;6.60;99.90;;;;;;5130452;27;20046;-84
2022/04/12 03:21:19;;;;;;;10.95;6.43;;;6.50;99.90;;;;;;5130279;27;20303;-83
2022/04/12 03:23:45;;;;;;;12.60;6.77;;;6.80;99.90;;;;;;5113444;27;20085;-83
2022/04/12 03:26:11;;;;;;;11.53;6.97;;;6.50;99.90;;;;;;5129679;27;20046;-83
2022/04/12 03:28:36;;;;;;;9.33;6.70;;;6.50;99.90;;;;;;5129280;27;20088;-84
2022/04/12 03:31:02;;;;;;;13.07;8.10;;;6.60;99.90;;;;;;5130315;27;20268;-82
2022/04/12 03:33:28;;;;;;;13.70;8.80;;;6.50;99.90;;;;;;5129557;27;20344;-83
2022/04/12 03:35:53;;;;;;;14.87;9.13;;;6.50;99.90;;;;;;5113032;27;20092;-84
2022/04/12 03:38:19;;;;;;;15.67;10.57;;;6.50;99.90;;;;;;5129533;27;20043;-83
2022/04/12 03:40:46;;;;;;;20.00;10.17;;;6.50;99.90;;;;;;5129788;27;20034;-83
2022/04/12 03:43:12;;;;;;;16.63;10.13;;;6.50;99.90;;;;;;5124388;27;20039;-83
2022/04/12 03:45:38;;;;;;;18.52;10.07;;;6.50;99.90;;;;;;5129809;27;20045;-83
2022/04/12 03:48:06;;;;;;;15.90;10.32;;;6.70;99.90;;;;;;5129521;27;20043;-83
2022/04/12 03:50:34;;;;;;;16.40;10.15;;;6.50;99.90;;;;;;5128877;27;20399;-84
2022/04/12 03:53:00;;;;;;;17.98;11.07;;;6.80;99.90;;;;;;5112830;27;20027;-84
2022/04/12 03:55:34;;;;;;;16.67;10.80;;;6.40;99.90;;;;;;5112303;27;20374;-84
2022/04/12 03:58:02;;;;;;;14.68;10.18;;;6.40;99.90;;;;;;5129584;27;20035;-83
2022/04/12 04:00:30;;;;;;;14.75;10.35;;;6.40;99.90;;;;;;5126876;27;20027;-84
2022/04/12 04:02:56;;;;;;;16.70;10.38;;;6.40;99.90;;;;;;5129523;27;20061;-83
2022/04/12 04:05:23;;;;;;;17.80;10.10;;;6.40;99.90;;;;;;5129501;27;20043;-84
2022/04/12 04:07:49;;;;;;;17.25;10.65;;;6.40;99.90;;;;;;5112438;27;20074;-84
2022/04/12 04:10:15;;;;;;;15.88;9.98;;;6.40;99.90;;;;;;5129895;27;20487;-84
2022/04/12 04:12:42;;;;;;;20.65;10.63;;;6.40;99.90;;;;;;5129303;27;20027;-83
2022/04/12 04:15:12;;;;;;;15.05;10.02;;;6.50;99.90;;;;;;5129588;27;20047;-83
2022/04/12 04:17:55;;;;;;;16.23;11.35;;;6.40;99.90;;;;;;5112320;27;20039;-83
2022/04/12 04:20:21;;;;;;;16.35;10.48;;;6.40;99.90;;;;;;5127369;27;20043;-83
2022/04/12 04:22:47;;;;;;;16.43;10.33;;;6.40;99.90;;;;;;5129867;27;20123;-84
2022/04/12 04:25:14;;;;;;;17.80;11.10;;;6.40;99.90;;;;;;5112514;27;20042;-82
2022/04/12 04:27:41;;;;;;;19.48;11.68;;;6.50;99.90;;;;;;5128646;27;20293;-83
2022/04/12 04:30:08;;;;;;;17.25;11.38;;;6.40;99.90;;;;;;5129219;27;20039;-82
2022/04/12 04:32:35;;;;;;;18.33;11.50;;;6.40;99.90;;;;;;5106890;28;20031;-83
2022/04/12 04:35:00;;;;;;;;;;;6.40;99.90;;;;;;5129298;27;20559;-84
2022/04/12 04:37:26;;;;;;;19.13;11.65;;;6.40;99.90;;;;;;5112188;27;19998;-84
2022/04/12 04:39:52;;;;;;;16.27;11.35;;;6.40;99.90;;;;;;5129048;27;20042;-84
2022/04/12 04:42:20;;;;;;;16.85;10.93;;;6.40;99.90;;;;;;5128895;27;20046;-84
2022/04/12 04:44:47;;;;;;;18.38;11.73;;;6.30;99.90;;;;;;5129392;28;20368;-85
2022/04/12 04:47:13;;;;;;;17.10;11.20;;;6.30;99.90;;;;;;5129290;27;20407;-83
2022/04/12 04:49:38;;;;;;;16.25;9.93;;;6.60;99.90;;;;;;5128806;27;20031;-84
2022/04/12 04:52:05;;;;;;;16.13;10.73;;;6.30;99.90;;;;;;5128963;27;20543;-82
2022/04/12 04:54:30;;;;;;;18.50;11.27;;;6.30;99.90;;;;;;5124474;27;20043;-82
2022/04/12 04:56:56;;;;;;;16.23;11.43;;;6.60;99.90;;;;;;5123301;27;20035;-83
2022/04/12 04:59:22;;;;;;;16.77;11.20;;;6.30;99.90;;;;;;5129191;28;20146;-82
2022/04/12 05:01:47;;;;;;;19.48;11.57;;;6.30;99.90;;;;;;5114161;27;20522;-83
2022/04/12 05:04:13;;;;;;;18.50;11.88;;;6.20;99.90;;;;;;5133812;27;20074;-83
2022/04/12 05:06:39;;;;;;;18.08;11.32;;;6.30;99.90;;;;;;5133304;27;20076;-83
2022/04/12 05:09:05;;;;;;;22.23;11.17;;;6.20;99.90;;;;;;5133473;27;20110;-83
2022/04/12 05:11:31;;;;;;;20.70;11.02;;;6.30;99.90;;;;;;5116330;27;20043;-83
2022/04/12 05:13:57;;;;;;;;;;;6.20;99.90;;;;;;5133821;27;20084;-84
2022/04/12 05:16:23;;;;;;;18.33;11.15;;;6.20;99.90;;;;;;5133549;27;19923;-83
2022/04/12 05:18:51;;;;;;;15.77;10.83;;;6.30;99.90;;;;;;5116567;27;20133;-82
2022/04/12 05:21:18;;;;;;;14.25;10.77;;;6.30;99.90;;;;;;5133533;27;20283;-82
2022/04/12 05:23:44;;;;;;;14.52;9.32;;;6.30;99.90;;;;;;5128181;27;20449;-83
2022/04/12 05:26:10;;;;;;;17.02;9.77;;;6.30;99.90;;;;;;5116084;27;20130;-82
2022/04/12 05:28:36;;;;;;;14.73;9.70;;;6.40;99.90;;;;;;5132590;27;20049;-84
2022/04/12 05:31:02;;;;;;;14.27;9.48;;;6.40;99.90;;;;;;5133022;27;20505;-83
2022/04/12 05:33:28;;;;;;;13.43;9.73;;;6.40;99.90;;;;;;5132605;27;20031;-83
2022/04/12 05:35:54;;;;;;;;;;;6.50;99.90;;;;;;5133409;27;20051;-83
2022/04/12 05:38:20;;;;;;;11.90;7.97;;;6.70;99.90;;;;;;5112885;27;20322;-83
2022/04/12 05:40:46;;;;;;;14.27;9.00;;;6.70;99.90;;;;;;5117841;27;20398;-83
2022/04/12 05:43:11;;;;;;;13.33;8.67;;;6.80;99.90;;;;;;5132772;27;20035;-82
2022/04/12 05:45:37;;;;;;;12.83;7.90;;;6.90;99.90;;;;;;5115182;27;20277;-84
2022/04/12 05:48:03;;;;;;;14.05;8.10;;;7.00;99.90;;;;;;5132490;27;20296;-83
2022/04/12 05:50:29;;;;;;;15.23;8.65;;;7.10;99.90;;;;;;5115198;27;20487;-83
2022/04/12 05:52:55;;;;;;;11.03;8.10;;;7.50;99.90;;;;;;5132369;27;20043;-83
2022/04/12 05:55:22;;;;;;;14.15;8.40;;;7.30;99.90;;;;;;5132743;27;20667;-83
2022/04/12 05:57:59;;;;;;;16.00;8.60;;;7.40;99.90;;;;;;5131896;27;20031;-83
2022/04/12 06:00:27;;;;;;;12.93;8.00;;;7.50;99.90;;;;;;5115366;27;20498;-83
2022/04/12 06:02:54;;;;;;;11.93;7.70;;;7.50;99.90;;;;;;5132519;27;20096;-83
2022/04/12 06:05:21;;;;;;;14.43;8.52;;;7.50;99.90;;;;;;5117071;27;20058;-83
2022/04/12 06:07:47;;;;;;;14.25;8.18;;;7.40;99.90;;;;;;5111263;28;20063;-83
2022/04/12 06:10:14;;;;;;;14.18;8.65;;;7.50;99.90;;;;;;5112160;28;20071;-82
2022/04/12 06:12:40;;;;;;;13.30;8.40;;;7.50;99.90;;;;;;5093417;28;20043;-83
2022/04/12 06:15:07;;;;;;;12.65;8.27;;;7.60;99.90;;;;;;5111721;28;20080;-82
2022/04/12 06:17:36;;;;;;;12.05;7.70;;;7.60;99.90;;;;;;5111752;28;20381;-82
2022/04/12 06:20:05;;;;;;;11.07;7.60;;;7.60;99.90;;;;;;5114306;27;20471;-83
2022/04/12 06:22:31;;;;;;;13.18;8.43;;;7.60;99.90;;;;;;5125315;27;20043;-83
2022/04/12 06:24:57;;;;;;;14.15;8.80;;;7.70;99.90;;;;;;5125227;27;20096;-83
2022/04/12 06:27:33;;;;;;;14.80;9.10;;;7.70;99.90;;;;;;5123966;27;20460;-82
2022/04/12 06:30:02;;;;;;;14.65;9.10;;;7.80;99.90;;;;;;5156133;27;20077;-83
2022/04/12 06:32:28;;;;;;;13.35;9.18;;;7.80;99.90;;;;;;5155839;27;20034;-83
2022/04/12 06:34:54;;;;;;;13.77;8.90;;;7.90;99.90;;;;;;5134460;27;20079;-83
2022/04/12 06:37:24;;;;;;;11.90;8.45;;;7.90;99.90;;;;;;5152892;27;20038;-83
2022/04/12 06:39:49;;;;;;;15.45;9.40;;;8.00;99.90;;;;;;5155831;27;20038;-82
2022/04/12 06:42:15;;;;;;;15.63;9.20;;;8.00;99.90;;;;;;5155768;27;20051;-83
2022/04/12 06:44:41;;;;;;;15.88;8.35;;;8.00;99.90;;;;;;5155928;27;20074;-83
2022/04/12 06:47:08;;;;;;;11.52;8.38;;;8.10;99.90;;;;;;5150817;27;20504;-84
2022/04/12 06:49:33;;;;;;;13.52;8.68;;;8.00;99.90;;;;;;5155579;27;20397;-84
2022/04/12 06:51:59;;;;;;;13.90;8.47;;;8.10;99.90;;;;;;5155788;27;20042;-83
2022/04/12 06:54:26;;;;;;;12.45;8.02;;;8.10;99.90;;;;;;5155564;27;20038;-83
2022/04/12 06:56:52;;;;;;;13.80;8.63;;;8.10;99.90;;;;;;5155449;27;20478;-83
2022/04/12 06:59:17;;;;;;;15.07;8.73;;;8.30;99.90;;;;;;5156234;27;20061;-83
2022/04/12 07:01:43;;;;;;;12.83;8.53;;;8.20;99.90;;;;;;5137828;27;20034;-83
2022/04/12 07:04:09;;;;;;;14.35;9.30;;;8.20;99.90;;;;;;5155860;27;20279;-83
2022/04/12 07:06:35;;;;;;;13.18;8.52;;;8.20;99.90;;;;;;5138108;27;20042;-84
2022/04/12 07:09:01;;;;;;;12.23;8.35;;;8.20;99.90;;;;;;5140724;27;20045;-83
2022/04/12 07:11:27;;;;;;;13.73;9.20;;;8.30;99.90;;;;;;5153176;27;20065;-84
2022/04/12 07:13:53;;;;;;;14.57;8.17;;;8.30;99.90;;;;;;5117246;27;20038;-83
2022/04/12 07:16:18;;;;;;;13.93;8.37;;;8.40;99.90;;;;;;5117548;27;20402;-83
2022/04/12 07:18:44;;;;;;;11.50;8.13;;;8.50;99.90;;;;;;5134214;27;20042;-82
2022/04/12 07:21:10;;;;;;;14.43;8.40;;;8.60;99.90;;;;;;5134773;27;20409;-83
2022/04/12 07:23:36;;;;;;;14.77;8.40;;;8.70;99.90;;;;;;5123193;27;20038;-83
2022/04/12 07:26:03;;;;;;;12.48;8.20;;;9.00;99.90;;;;;;5154985;27;20276;-82
2022/04/12 07:28:29;;;;;;;13.52;8.05;;;9.40;99.90;;;;;;5137671;27;20145;-83
2022/04/12 07:30:55;;;;;;;11.85;7.97;;;9.80;99.90;;;;;;5155210;27;20042;-83
2022/04/12 07:33:21;;;;;;;14.83;8.17;;;10.30;99.90;;;;;;5154923;27;20037;-84
2022/04/12 07:35:46;;;;;;;12.57;7.73;;;10.60;99.90;;;;;;5154498;27;20275;-83
2022/04/12 07:38:12;;;;;;;12.80;7.72;;;10.90;99.90;;;;;;5155229;27;20415;-83
2022/04/12 07:40:38;;;;;;;10.85;7.30;;;11.10;99.90;;;;;;5154611;27;20366;-84
2022/04/12 07:43:04;;;;;;;11.77;7.80;;;11.10;99.90;;;;;;5154657;27;20502;-83
2022/04/12 07:45:29;;;;;;;12.13;7.75;;;11.50;99.90;;;;;;5154849;27;20423;-83
2022/04/12 07:47:55;;;;;;;13.50;7.43;;;11.70;99.90;;;;;;5136933;27;20513;-84
2022/04/12 07:50:21;;;;;;;9.00;7.05;;;11.90;99.90;;;;;;5154931;27;20460;-84
2022/04/12 07:52:47;;;;;;;10.80;7.68;;;12.20;99.90;;;;;;5154513;27;20478;-83
2022/04/12 07:55:13;;;;;;;10.98;7.50;;;12.30;99.90;;;;;;5173234;27;20046;-83
2022/04/12 07:57:39;;;;;;;13.88;8.13;;;12.60;99.90;;;;;;5154221;27;20066;-83
2022/04/12 08:00:05;;;;;;;12.25;7.65;;;12.90;99.90;;;;;;5154676;27;20496;-82
2022/04/12 08:02:31;;;;;;;12.20;8.13;;;13.10;99.90;;;;;;5173276;27;20122;-83
2022/04/12 08:04:57;;;;;;;11.83;7.20;;;13.20;99.90;;;;;;5143785;27;20529;-83
2022/04/12 08:07:22;;;;;;;10.68;7.03;;;13.40;99.90;;;;;;5133317;27;20284;-83
2022/04/12 08:09:48;;;;;;;9.90;7.38;;;13.60;99.90;;;;;;5116559;27;20432;-84
2022/04/12 08:12:14;;;;;;;11.98;7.50;;;13.50;99.90;;;;;;5133886;27;20038;-83
2022/04/12 08:14:39;;;;;;;11.20;7.57;;;13.20;99.90;;;;;;5116142;27;20034;-83
2022/04/12 08:17:05;;;;;;;10.48;7.55;;;13.60;99.90;;;;;;5133473;27;20444;-84
2022/04/12 08:19:31;;;;;;;10.95;7.32;;;13.70;99.90;;;;;;5133694;27;20045;-83
2022/04/12 08:22:00;;;;;;;10.70;7.22;;;13.70;99.90;;;;;;5115795;27;20047;-82
2022/04/12 08:24:26;;;;;;;9.55;7.38;;;14.10;99.90;;;;;;5133436;27;20506;-83
2022/04/12 08:26:51;;;;;;;10.38;7.88;;;14.10;99.90;;;;;;5132687;27;20122;-83
2022/04/12 08:29:17;;;;;;;8.80;6.72;;;14.10;99.90;;;;;;5133087;27;20051;-82
2022/04/12 08:31:44;;;;;;;10.00;7.57;;;14.50;99.90;;;;;;5136726;27;20030;-84
2022/04/12 08:34:10;;;;;;;9.90;7.05;;;14.70;99.90;;;;;;5153888;27;20038;-83
2022/04/12 08:36:35;;;;;;;10.27;7.65;;;14.60;99.90;;;;;;5135508;27;20106;-84
2022/04/12 08:39:02;;;;;;;8.77;7.47;;;14.70;99.90;;;;;;5153991;27;20046;-83
2022/04/12 08:41:31;;;;;;;9.60;6.90;;;14.70;99.90;;;;;;5154182;27;20389;-83
2022/04/12 08:43:59;;;;;;;10.07;7.22;;;14.80;99.90;;;;;;5153670;27;20500;-83
2022/04/12 08:46:27;;;;;;;10.32;7.50;;;15.00;99.90;;;;;;5145328;27;20201;-83
2022/04/12 08:48:54;;;;;;;11.55;7.50;;;15.10;99.90;;;;;;5132554;27;20057;-83
2022/04/12 08:51:21;;;;;;;11.13;6.88;;;15.00;99.90;;;;;;5132806;27;20387;-83
2022/04/12 08:53:47;;;;;;;11.27;8.00;;;15.00;99.90;;;;;;5132689;27;20041;-83
2022/04/12 08:56:14;;;;;;;9.55;7.00;;;15.20;99.90;;;;;;5115917;27;20083;-82
2022/04/12 08:58:39;;;;;;;11.80;7.70;;;15.30;99.90;;;;;;5132924;27;20034;-84
2022/04/12 09:01:05;;;;;;;10.45;7.05;;;15.70;99.90;;;;;;5165247;27;20530;-83
2022/04/12 09:03:31;;;;;;;9.45;7.03;;;16.10;99.90;;;;;;5152083;27;20153;-83
2022/04/12 09:05:56;;;;;;;10.57;7.05;;;16.10;99.90;;;;;;5130916;27;20099;-83
2022/04/12 09:08:24;;;;;;;10.45;7.25;;;16.00;99.90;;;;;;5132744;27;20075;-84
2022/04/12 09:10:56;;;;;;;9.00;7.18;;;16.30;99.90;;;;;;5132434;27;20039;-83
2022/04/12 09:13:22;;;;;;;11.32;7.20;;;16.50;99.90;;;;;;5133010;27;20050;-84
2022/04/12 09:15:48;;;;;;;11.48;7.03;;;16.60;99.90;;;;;;5132831;27;20039;-83
2022/04/12 09:18:13;;;;;;;8.40;6.53;;;16.90;99.90;;;;;;5132758;27;20038;-84
2022/04/12 09:20:41;;;;;;;10.05;7.10;;;17.00;99.90;;;;;;5132870;27;20058;-83
2022/04/12 09:23:16;;;;;;;11.63;7.20;;;16.50;99.70;;;;;;5148695;27;20066;-83
2022/04/12 09:25:54;;;;;;;11.02;7.20;;;16.70;99.70;;;;;;5133165;27;20045;-83
2022/04/12 09:28:20;;;;;;;9.65;6.93;;;16.90;99.70;;;;;;5132308;27;20047;-83
2022/04/12 09:30:46;;;;;;;10.10;6.65;;;16.90;99.90;;;;;;5118508;27;20053;-83
2022/04/12 09:33:33;;;;;;;8.90;6.65;;;17.40;99.70;;;;;;5153716;27;20065;-83
2022/04/12 09:35:59;;;;;;;10.18;6.93;;;17.50;99.00;;;;;;5152787;27;20113;-83
2022/04/12 09:38:36;;;;;;;8.88;6.78;;;18.00;98.40;;;;;;5153469;27;20362;-83
2022/04/12 09:41:17;;;;;;;12.02;7.13;;;18.10;97.60;;;;;;5152976;27;20042;-84
2022/04/12 09:43:55;;;;;;;8.88;7.07;;;18.50;97.40;;;;;;5152960;27;20054;-84
2022/04/12 09:46:23;;;;;;;8.93;7.18;;;18.40;96.70;;;;;;5153326;27;20053;-84
2022/04/12 09:48:50;;;;;;;10.90;7.45;;;18.50;96.80;;;;;;5155793;27;20034;-84
2022/04/12 09:51:19;;;;;;;10.82;7.65;;;18.90;96.80;;;;;;5156973;27;20439;-84
2022/04/12 09:53:47;;;;;;;9.27;6.47;;;18.80;96.00;;;;;;5142726;27;20041;-84
2022/04/12 09:56:23;;;;;;;9.45;7.57;;;18.80;96.00;;;;;;5144146;27;20038;-84
2022/04/12 09:58:51;;;;;;;10.07;7.10;;;19.20;95.80;;;;;;5135906;27;20069;-85
2022/04/12 10:01:18;;;;;;;9.35;7.18;;;19.20;95.20;;;;;;5157163;27;20075;-84
2022/04/12 10:03:55;;;;;;;9.45;7.53;;;19.20;95.50;;;;;;5139015;27;20045;-83
2022/04/12 10:06:23;;;;;;;11.23;6.60;;;19.20;94.90;;;;;;5156896;27;20046;-83
2022/04/12 10:08:55;;;;;;;10.20;6.75;;;19.30;94.40;;;;;;5156292;27;20049;-84
2022/04/12 10:11:23;;;;;;;7.75;6.10;;;19.40;92.80;;;;;;5156594;27;20125;-83
2022/04/12 10:13:49;;;;;;;10.60;7.05;;;19.30;92.90;;;;;;5156123;27;20034;-84
2022/04/12 10:16:18;;;;;;;9.38;6.88;;;19.20;93.00;;;;;;5134374;27;20039;-84
2022/04/12 10:18:45;;;;;;;12.07;6.40;;;19.50;92.90;;;;;;5137116;27;20125;-84
2022/04/12 10:21:15;;;;;;;9.02;6.70;;;19.70;92.30;;;;;;5156225;27;20049;-84
2022/04/12 10:23:47;;;;;;;10.15;7.18;;;19.90;91.60;;;;;;5156969;27;20061;-84
2022/04/12 10:26:14;;;;;;;9.38;6.95;;;20.30;91.50;;;;;;5156299;27;20044;-84
2022/04/12 10:28:40;;;;;;;10.82;6.68;;;21.00;91.60;;;;;;5124455;27;20473;-83
2022/04/12 10:31:14;;;;;;;9.52;7.28;;;21.10;90.30;;;;;;5131706;27;20066;-83
2022/04/12 10:33:40;;;;;;;12.02;7.25;;;21.20;90.30;;;;;;5123018;27;20125;-84
2022/04/12 10:36:07;;;;;;;8.73;6.43;;;20.80;89.00;;;;;;5094369;28;20036;-84
2022/04/12 10:38:41;;;;;;;9.75;7.00;;;20.80;88.10;;;;;;5109316;28;20054;-84
2022/04/12 10:41:16;;;;;;;11.80;6.97;;;20.90;89.70;;;;;;5111401;28;20036;-84
2022/04/12 10:43:42;;;;;;;10.45;7.00;;;20.70;90.00;;;;;;5122598;27;20039;-84
2022/04/12 10:46:13;;;;;;;8.80;7.10;;;20.60;89.50;;;;;;5131929;27;20096;-83
2022/04/12 10:48:39;;;;;;;9.05;7.13;;;20.70;90.20;;;;;;5131969;27;20043;-86
2022/04/12 10:51:06;;;;;;;9.48;7.03;;;21.00;89.40;;;;;;5131279;27;20080;-84
2022/04/12 10:53:38;;;;;;;10.70;7.10;;;21.20;89.60;;;;;;5131825;27;20031;-84
2022/04/12 10:56:05;;;;;;;9.80;6.65;;;21.40;88.50;;;;;;5131530;27;20394;-83
2022/04/12 10:58:33;;;;;;;8.65;6.45;;;21.50;86.80;;;;;;5075229;28;20036;-84
2022/04/12 11:00:59;;;;;;;11.23;7.10;;;21.70;87.10;;;;;;5110616;28;20099;-84
2022/04/12 11:03:40;;;;;;;;;;;21.90;86.20;;;;;;5111550;28;20566;-84
2022/04/12 11:06:11;;;;;;;9.10;6.63;;;22.00;85.50;;;;;;5110405;28;19923;-84
2022/04/12 11:08:43;;;;;;;10.50;7.13;;;21.70;85.30;;;;;;5110879;28;20039;-85
2022/04/12 11:11:10;;;;;;;9.35;6.85;;;21.40;86.70;;;;;;5110460;27;20070;-84
2022/04/12 11:13:36;;;;;;;9.60;6.38;;;21.50;85.50;;;;;;5111139;28;20114;-84
2022/04/12 11:16:08;;;;;;;9.80;7.10;;;21.40;86.10;;;;;;5110582;28;20036;-84
2022/04/12 11:18:56;;;;;;;8.50;6.43;;;21.70;86.00;;;;;;5109395;28;20467;-83
2022/04/12 11:21:25;;;;;;;11.70;7.00;;;21.80;85.90;;;;;;5110393;28;20051;-84
2022/04/12 11:23:57;;;;;;;11.55;7.53;;;22.00;85.30;;;;;;5110193;28;20035;-83
2022/04/12 11:26:44;;;;;;;11.13;7.57;;;21.80;86.90;;;;;;5107863;28;20071;-83
2022/04/12 11:29:10;;;;;;;10.57;7.15;;;21.80;86.30;;;;;;5125492;27;20537;-84
2022/04/12 11:31:51;;;;;;;10.77;7.10;;;22.00;86.20;;;;;;5131447;27;20047;-84
2022/04/12 11:34:18;;;;;;;10.98;7.30;;;22.20;85.30;;;;;;5131141;27;20092;-84
2022/04/12 11:36:51;;;;;;;9.00;6.60;;;22.30;86.10;;;;;;5131489;27;20489;-84
2022/04/12 11:39:21;;;;;;;10.68;7.38;;;21.90;85.80;;;;;;5131169;27;20547;-83
2022/04/12 11:41:47;;;;;;;10.82;7.38;;;22.10;84.70;;;;;;5130612;27;20039;-83
2022/04/12 11:44:13;;;;;;;9.82;7.22;;;22.20;86.70;;;;;;5131195;27;20402;-83
2022/04/12 11:46:39;;;;;;;;;;;22.30;85.60;;;;;;5114025;27;20039;-84
2022/04/12 11:49:12;;;;;;;10.10;7.40;;;21.80;85.50;;;;;;5112941;27;19919;-84
2022/04/12 11:51:39;;;;;;;10.65;7.43;;;21.90;85.30;;;;;;5130729;27;20035;-84
2022/04/12 11:54:24;;;;;;;8.40;7.35;;;22.20;85.90;;;;;;5112891;27;20052;-84
2022/04/12 11:57:09;;;;;;;10.18;6.75;;;21.90;86.30;;;;;;5130018;27;20130;-83
2022/04/12 11:59:36;;;;;;;8.75;6.65;;;22.20;86.40;;;;;;5130661;27;20054;-83
2022/04/12 12:02:04;;;;;;;8.82;6.85;;;22.20;86.40;;;;;;5131531;27;20096;-83
2022/04/12 12:04:33;;;;;;;9.52;7.00;;;22.10;86.60;;;;;;5130425;27;20042;-83
2022/04/12 12:07:07;;;;;;;9.32;6.47;;;22.20;86.20;;;;;;5113084;27;20043;-83
2022/04/12 12:09:35;;;;;;;10.63;7.20;;;21.80;87.20;;;;;;5130224;27;20047;-84
2022/04/12 12:12:06;;;;;;;9.38;6.38;;;21.60;87.20;;;;;;5129639;27;20084;-83
2022/04/12 12:14:32;;;;;;;9.32;7.20;;;22.00;86.60;;;;;;5126502;27;20046;-84
2022/04/12 12:16:58;;;;;;;;;;;21.80;87.10;;;;;;5130193;27;20068;-84
2022/04/12 12:19:24;;;;;;;10.30;6.88;;;22.00;86.20;;;;;;5130255;27;19915;-83
2022/04/12 12:21:52;;;;;;;9.25;6.40;;;22.20;85.50;;;;;;5112477;27;20042;-82
2022/04/12 12:24:17;;;;;;;9.32;6.90;;;22.20;85.70;;;;;;5130528;27;20046;-84
2022/04/12 12:26:43;;;;;;;11.45;6.72;;;22.00;84.00;;;;;;5113333;27;20042;-83
2022/04/12 12:29:10;;;;;;;9.63;6.85;;;21.90;85.30;;;;;;5126400;27;20255;-84
2022/04/12 12:31:43;;;;;;;10.80;6.63;;;21.80;85.20;;;;;;5092754;28;20035;-84
2022/04/12 12:34:32;;;;;;;9.75;7.13;;;21.70;86.10;;;;;;5122209;27;20053;-84
2022/04/12 12:37:05;;;;;;;10.25;7.10;;;21.90;86.00;;;;;;5117605;27;20074;-84
2022/04/12 12:39:36;;;;;;;10.32;7.22;;;21.90;85.00;;;;;;5119335;27;20039;-84
2022/04/12 12:42:03;;;;;;;9.80;6.93;;;22.00;85.10;;;;;;5108887;28;20036;-84
2022/04/12 12:44:41;;;;;;;8.68;6.53;;;22.10;85.30;;;;;;5109220;28;20035;-83
2022/04/12 12:47:09;;;;;;;9.43;7.10;;;22.30;84.50;;;;;;5092495;28;20035;-83
2022/04/12 12:49:40;;;;;;;12.18;6.93;;;22.10;85.30;;;;;;5109086;28;20092;-83
2022/04/12 12:52:11;;;;;;;11.02;7.30;;;21.90;84.90;;;;;;5092351;28;20039;-83